Weaver, South Dakota
Current Conditions -  °F | °C
As of 6:53 PM on Saturday 22 Nov 2014 (Local Time) from KICR Reporting Station
Few Clouds Few Clouds  
Wind Chill: 51°   Ceiling: Unl
Heat Index: 51°   Visibility: 10mi
Dew Point: 30°   Wind: 10mph
Humidity: 44%   Direction: 240°WSW
Pressure: 29.44"   Gusts: NA
Location:  43.2923°N, 99.8934°W
Report Text: KICR 230053Z AUTO 24009KT 10SM FEW120 11/M01 A2944 RMK AO2 SLP975 T01061011
Loading
Personal Weather Stations






























Interactive Weather Map New forecast layout! Learn more

10-Day Weather Forecast

Advertisements
Track Severe Weather on mobile